sensor_id;sensor_type;location;lat;lon;timestamp;pressure;altitude;pressure_sealevel;temperature;humidity
57094;BME280;42970;50.996;3.706;2023-04-24T00:02:07;73883.59;;;-146.65;84.04
57094;BME280;42970;50.996;3.706;2023-04-24T00:04:36;73907.81;;;-146.65;84.41
57094;BME280;42970;50.996;3.706;2023-04-24T00:07:05;73917.88;;;-146.65;84.10
57094;BME280;42970;50.996;3.706;2023-04-24T00:09:32;73909.81;;;-146.65;84.29
57094;BME280;42970;50.996;3.706;2023-04-24T00:11:57;73915.88;;;-146.65;84.40
57094;BME280;42970;50.996;3.706;2023-04-24T00:14:22;73903.78;;;-146.65;83.94
57094;BME280;42970;50.996;3.706;2023-04-24T00:16:48;73891.66;;;-146.65;83.47
57094;BME280;42970;50.996;3.706;2023-04-24T00:19:13;73899.75;;;-146.65;83.53
57094;BME280;42970;50.996;3.706;2023-04-24T00:21:39;73901.75;;;-146.65;83.37
57094;BME280;42970;50.996;3.706;2023-04-24T00:24:04;73893.69;;;-146.65;83.31
57094;BME280;42970;50.996;3.706;2023-04-24T00:26:30;73913.84;;;-146.65;83.35
57094;BME280;42970;50.996;3.706;2023-04-24T00:28:55;73911.84;;;-146.65;83.14
57094;BME280;42970;50.996;3.706;2023-04-24T00:31:20;73911.84;;;-146.65;83.17
57094;BME280;42970;50.996;3.706;2023-04-24T00:33:46;73909.81;;;-146.65;83.23
57094;BME280;42970;50.996;3.706;2023-04-24T00:36:11;73903.78;;;-146.65;83.25
57094;BME280;42970;50.996;3.706;2023-04-24T00:38:37;73887.63;;;-146.65;83.05
57094;BME280;42970;50.996;3.706;2023-04-24T00:41:02;73883.59;;;-146.65;83.23
57094;BME280;42970;50.996;3.706;2023-04-24T00:43:27;73891.66;;;-146.65;83.35
57094;BME280;42970;50.996;3.706;2023-04-24T00:45:52;73901.75;;;-146.65;83.49
57094;BME280;42970;50.996;3.706;2023-04-24T00:48:18;73885.63;;;-146.65;83.05
57094;BME280;42970;50.996;3.706;2023-04-24T00:50:44;73891.66;;;-146.65;82.77
57094;BME280;42970;50.996;3.706;2023-04-24T00:53:10;73923.94;;;-146.65;83.03
57094;BME280;42970;50.996;3.706;2023-04-24T00:55:35;73867.47;;;-146.65;80.93
57094;BME280;42970;50.996;3.706;2023-04-24T00:58:02;73903.78;;;-146.65;80.44
57094;BME280;42970;50.996;3.706;2023-04-24T01:00:27;73895.69;;;-146.65;80.55
57094;BME280;42970;50.996;3.706;2023-04-24T01:02:53;73889.66;;;-146.65;80.33
57094;BME280;42970;50.996;3.706;2023-04-24T01:05:19;73903.78;;;-146.65;80.24
57094;BME280;42970;50.996;3.706;2023-04-24T01:07:45;73899.75;;;-146.65;80.59
57094;BME280;42970;50.996;3.706;2023-04-24T01:10:13;73905.78;;;-146.65;80.86
57094;BME280;42970;50.996;3.706;2023-04-24T01:12:38;73936.03;;;-146.65;81.38
57094;BME280;42970;50.996;3.706;2023-04-24T01:15:04;73911.84;;;-146.65;80.78
57094;BME280;42970;50.996;3.706;2023-04-24T01:17:31;73925.94;;;-146.65;80.68
57094;BME280;42970;50.996;3.706;2023-04-24T01:19:57;73911.84;;;-146.65;80.72
57094;BME280;42970;50.996;3.706;2023-04-24T01:22:23;73905.78;;;-146.65;80.53
57094;BME280;42970;50.996;3.706;2023-04-24T01:24:48;73915.88;;;-146.65;80.56
57094;BME280;42970;50.996;3.706;2023-04-24T01:27:14;73923.94;;;-146.65;80.74
57094;BME280;42970;50.996;3.706;2023-04-24T01:29:40;73903.78;;;-146.65;79.97
57094;BME280;42970;50.996;3.706;2023-04-24T01:32:05;73897.72;;;-146.65;80.06
57094;BME280;42970;50.996;3.706;2023-04-24T01:34:31;73936.03;;;-146.65;81.53
57094;BME280;42970;50.996;3.706;2023-04-24T01:36:56;73942.06;;;-146.65;81.96
57094;BME280;42970;50.996;3.706;2023-04-24T01:39:22;73946.09;;;-146.65;83.14
57094;BME280;42970;50.996;3.706;2023-04-24T01:41:50;73936.03;;;-146.65;82.67
57094;BME280;42970;50.996;3.706;2023-04-24T01:44:15;73956.19;;;-146.65;82.97
57094;BME280;42970;50.996;3.706;2023-04-24T01:46:41;73950.13;;;-146.65;83.56
57094;BME280;42970;50.996;3.706;2023-04-24T01:49:06;73972.31;;;-146.65;84.28
57094;BME280;42970;50.996;3.706;2023-04-24T01:51:31;73960.22;;;-146.65;84.22
57094;BME280;42970;50.996;3.706;2023-04-24T01:53:57;73960.22;;;-146.65;84.29
57094;BME280;42970;50.996;3.706;2023-04-24T01:56:22;73938.03;;;-146.65;83.97
57094;BME280;42970;50.996;3.706;2023-04-24T01:58:48;73907.81;;;-146.65;84.04
57094;BME280;42970;50.996;3.706;2023-04-24T02:01:17;73944.09;;;-146.65;83.91
57094;BME280;42970;50.996;3.706;2023-04-24T02:03:43;73938.03;;;-146.65;83.85
57094;BME280;42970;50.996;3.706;2023-04-24T02:06:08;73932.00;;;-146.65;83.86
57094;BME280;42970;50.996;3.706;2023-04-24T02:08:34;73919.91;;;-146.65;83.74
57094;BME280;42970;50.996;3.706;2023-04-24T02:10:59;73942.06;;;-146.65;84.17
57094;BME280;42970;50.996;3.706;2023-04-24T02:13:26;73899.75;;;-146.65;83.65
57094;BME280;42970;50.996;3.706;2023-04-24T02:15:51;73927.97;;;-146.65;84.52
57094;BME280;42970;50.996;3.706;2023-04-24T02:18:17;73952.16;;;-146.65;85.12
57094;BME280;42970;50.996;3.706;2023-04-24T02:20:42;73966.28;;;-146.65;85.82
57094;BME280;42970;50.996;3.706;2023-04-24T02:23:07;73960.22;;;-146.65;85.73
57094;BME280;42970;50.996;3.706;2023-04-24T02:25:33;73960.22;;;-146.65;85.43
57094;BME280;42970;50.996;3.706;2023-04-24T02:27:58;73976.34;;;-146.65;86.20
57094;BME280;42970;50.996;3.706;2023-04-24T02:30:24;73974.34;;;-146.65;86.16
57094;BME280;42970;50.996;3.706;2023-04-24T02:32:49;73996.50;;;-146.65;86.71
57094;BME280;42970;50.996;3.706;2023-04-24T02:35:15;73998.53;;;-146.65;86.92
57094;BME280;42970;50.996;3.706;2023-04-24T02:37:40;73994.50;;;-146.65;87.23
57094;BME280;42970;50.996;3.706;2023-04-24T02:40:05;73980.38;;;-146.65;86.97
57094;BME280;42970;50.996;3.706;2023-04-24T02:42:31;73994.50;;;-146.65;87.09
57094;BME280;42970;50.996;3.706;2023-04-24T02:44:56;73986.44;;;-146.65;87.24
57094;BME280;42970;50.996;3.706;2023-04-24T02:47:22;73968.28;;;-146.65;86.78
57094;BME280;42970;50.996;3.706;2023-04-24T02:49:47;73950.13;;;-146.65;86.23
57094;BME280;42970;50.996;3.706;2023-04-24T02:52:12;73952.16;;;-146.65;86.18
57094;BME280;42970;50.996;3.706;2023-04-24T02:54:39;73960.22;;;-146.65;86.08
57094;BME280;42970;50.996;3.706;2023-04-24T02:57:04;73940.06;;;-146.65;85.53
57094;BME280;42970;50.996;3.706;2023-04-24T02:59:31;73972.31;;;-146.65;86.26
57094;BME280;42970;50.996;3.706;2023-04-24T03:01:56;73966.28;;;-146.65;86.19
57094;BME280;42970;50.996;3.706;2023-04-24T03:04:22;73982.41;;;-146.65;86.11
57094;BME280;42970;50.996;3.706;2023-04-24T03:06:47;73964.25;;;-146.65;85.45
57094;BME280;42970;50.996;3.706;2023-04-24T03:09:13;73966.28;;;-146.65;85.50
57094;BME280;42970;50.996;3.706;2023-04-24T03:11:38;73944.09;;;-146.65;85.02
57094;BME280;42970;50.996;3.706;2023-04-24T03:14:03;73944.09;;;-146.65;85.02
57094;BME280;42970;50.996;3.706;2023-04-24T03:16:29;73966.28;;;-146.65;85.02
57094;BME280;42970;50.996;3.706;2023-04-24T03:18:54;74006.59;;;-146.65;85.93
57094;BME280;42970;50.996;3.706;2023-04-24T03:21:19;73992.47;;;-146.65;85.65
57094;BME280;42970;50.996;3.706;2023-04-24T03:23:45;74024.75;;;-146.65;86.15
57094;BME280;42970;50.996;3.706;2023-04-24T03:26:10;74065.06;;;-146.65;87.51
57094;BME280;42970;50.996;3.706;2023-04-24T03:28:35;74050.97;;;-146.65;87.01
57094;BME280;42970;50.996;3.706;2023-04-24T03:31:02;74077.16;;;-146.65;87.86
57094;BME280;42970;50.996;3.706;2023-04-24T03:33:27;74063.06;;;-146.65;87.37
57094;BME280;42970;50.996;3.706;2023-04-24T03:35:53;74069.09;;;-146.65;87.49
57094;BME280;42970;50.996;3.706;2023-04-24T03:38:18;74093.31;;;-146.65;87.55
57094;BME280;42970;50.996;3.706;2023-04-24T03:40:44;74097.34;;;-146.65;87.41
57094;BME280;42970;50.996;3.706;2023-04-24T03:43:09;74115.47;;;-146.65;87.86
57094;BME280;42970;50.996;3.706;2023-04-24T03:45:34;74113.47;;;-146.65;87.86
57094;BME280;42970;50.996;3.706;2023-04-24T03:48:00;74113.47;;;-146.65;87.72
57094;BME280;42970;50.996;3.706;2023-04-24T03:50:25;74137.66;;;-146.65;87.97
57094;BME280;42970;50.996;3.706;2023-04-24T03:52:51;74129.59;;;-146.65;87.66
57094;BME280;42970;50.996;3.706;2023-04-24T03:55:17;74145.72;;;-146.65;88.02
57094;BME280;42970;50.996;3.706;2023-04-24T03:57:42;74175.97;;;-146.65;88.58
57094;BME280;42970;50.996;3.706;2023-04-24T04:00:07;74180.00;;;-146.65;88.66
57094;BME280;42970;50.996;3.706;2023-04-24T04:02:34;74169.91;;;-146.65;88.65
57094;BME280;42970;50.996;3.706;2023-04-24T04:04:59;74171.94;;;-146.65;88.45
57094;BME280;42970;50.996;3.706;2023-04-24T04:07:24;74173.94;;;-146.65;88.78
57094;BME280;42970;50.996;3.706;2023-04-24T04:09:50;74163.88;;;-146.65;88.38
57094;BME280;42970;50.996;3.706;2023-04-24T04:12:16;74190.09;;;-146.65;88.27
57094;BME280;42970;50.996;3.706;2023-04-24T04:14:41;74192.09;;;-146.65;88.14
57094;BME280;42970;50.996;3.706;2023-04-24T04:17:06;74192.09;;;-146.65;88.20
57094;BME280;42970;50.996;3.706;2023-04-24T04:19:32;74194.13;;;-146.65;88.16
57094;BME280;42970;50.996;3.706;2023-04-24T04:21:57;74200.16;;;-146.65;87.82
57094;BME280;42970;50.996;3.706;2023-04-24T04:24:23;74180.00;;;-146.65;87.55
57094;BME280;42970;50.996;3.706;2023-04-24T04:26:49;74177.97;;;-146.65;87.17
57094;BME280;42970;50.996;3.706;2023-04-24T04:29:16;74171.94;;;-146.65;86.94
57094;BME280;42970;50.996;3.706;2023-04-24T04:31:41;74186.06;;;-146.65;86.76
57094;BME280;42970;50.996;3.706;2023-04-24T04:34:07;74198.16;;;-146.65;87.12
57094;BME280;42970;50.996;3.706;2023-04-24T04:36:33;74210.25;;;-146.65;87.34
57094;BME280;42970;50.996;3.706;2023-04-24T04:39:02;74234.44;;;-146.65;87.92
57094;BME280;42970;50.996;3.706;2023-04-24T04:41:29;74216.28;;;-146.65;87.37
57094;BME280;42970;50.996;3.706;2023-04-24T04:43:55;74224.34;;;-146.65;87.32
57094;BME280;42970;50.996;3.706;2023-04-24T04:46:23;74210.25;;;-146.65;87.28
57094;BME280;42970;50.996;3.706;2023-04-24T04:48:51;74246.53;;;-146.65;87.35
57094;BME280;42970;50.996;3.706;2023-04-24T04:51:16;74238.47;;;-146.65;87.02
57094;BME280;42970;50.996;3.706;2023-04-24T04:53:41;74212.25;;;-146.65;86.70
57094;BME280;42970;50.996;3.706;2023-04-24T04:56:07;74212.25;;;-146.65;86.80
57094;BME280;42970;50.996;3.706;2023-04-24T04:58:33;74226.38;;;-146.65;86.49
57094;BME280;42970;50.996;3.706;2023-04-24T05:00:58;74268.72;;;-146.65;87.72
57094;BME280;42970;50.996;3.706;2023-04-24T05:03:24;74258.63;;;-146.65;87.55
57094;BME280;42970;50.996;3.706;2023-04-24T05:05:49;74270.75;;;-146.65;87.54
57094;BME280;42970;50.996;3.706;2023-04-24T05:08:16;74272.75;;;-146.65;87.37
57094;BME280;42970;50.996;3.706;2023-04-24T05:10:41;74266.69;;;-146.65;87.17
57094;BME280;42970;50.996;3.706;2023-04-24T05:13:06;74230.41;;;-146.65;87.04
57094;BME280;42970;50.996;3.706;2023-04-24T05:15:32;74264.69;;;-146.65;86.89
57094;BME280;42970;50.996;3.706;2023-04-24T05:17:57;74280.81;;;-146.65;86.74
57094;BME280;42970;50.996;3.706;2023-04-24T05:20:23;74280.81;;;-146.65;86.78
57094;BME280;42970;50.996;3.706;2023-04-24T05:22:50;74290.91;;;-146.65;86.56
57094;BME280;42970;50.996;3.706;2023-04-24T05:25:15;74298.97;;;-146.65;86.81
57094;BME280;42970;50.996;3.706;2023-04-24T05:27:40;74303.00;;;-146.65;87.09
57094;BME280;42970;50.996;3.706;2023-04-24T05:30:06;74319.13;;;-146.65;87.20
57094;BME280;42970;50.996;3.706;2023-04-24T05:32:33;74311.06;;;-146.65;87.34
57094;BME280;42970;50.996;3.706;2023-04-24T05:34:58;74311.06;;;-146.65;87.39
57094;BME280;42970;50.996;3.706;2023-04-24T05:37:24;74319.13;;;-146.65;87.15
57094;BME280;42970;50.996;3.706;2023-04-24T05:39:49;74311.06;;;-146.65;87.25
57094;BME280;42970;50.996;3.706;2023-04-24T05:42:14;74300.97;;;-146.65;86.79
57094;BME280;42970;50.996;3.706;2023-04-24T05:44:40;74323.16;;;-146.65;87.14
57094;BME280;42970;50.996;3.706;2023-04-24T05:47:05;74298.97;;;-146.65;86.77
57094;BME280;42970;50.996;3.706;2023-04-24T05:49:30;74286.88;;;-146.65;86.29
57094;BME280;42970;50.996;3.706;2023-04-24T05:51:56;74298.97;;;-146.65;86.64
57094;BME280;42970;50.996;3.706;2023-04-24T05:54:22;74286.88;;;-146.65;86.33
57094;BME280;42970;50.996;3.706;2023-04-24T05:56:48;74294.94;;;-146.65;86.33
57094;BME280;42970;50.996;3.706;2023-04-24T05:59:14;74307.03;;;-146.65;86.28
57094;BME280;42970;50.996;3.706;2023-04-24T06:01:39;74262.66;;;-146.65;85.54
57094;BME280;42970;50.996;3.706;2023-04-24T06:04:04;74307.03;;;-146.65;85.78
57094;BME280;42970;50.996;3.706;2023-04-24T06:06:30;74284.84;;;-146.65;85.71
57094;BME280;42970;50.996;3.706;2023-04-24T06:08:57;74305.00;;;-146.65;85.65
57094;BME280;42970;50.996;3.706;2023-04-24T06:11:23;74311.06;;;-146.65;86.01
57094;BME280;42970;50.996;3.706;2023-04-24T06:13:49;74315.09;;;-146.65;86.06
57094;BME280;42970;50.996;3.706;2023-04-24T06:16:15;74307.03;;;-146.65;85.97
57094;BME280;42970;50.996;3.706;2023-04-24T06:18:40;74298.97;;;-146.65;86.10
57094;BME280;42970;50.996;3.706;2023-04-24T06:21:06;74315.09;;;-146.65;86.11
57094;BME280;42970;50.996;3.706;2023-04-24T06:23:31;74339.28;;;-146.65;86.84
57094;BME280;42970;50.996;3.706;2023-04-24T06:25:58;74335.25;;;-146.65;87.09
57094;BME280;42970;50.996;3.706;2023-04-24T06:28:23;74357.44;;;-146.65;87.30
57094;BME280;42970;50.996;3.706;2023-04-24T06:30:49;74355.44;;;-146.65;87.70
57094;BME280;42970;50.996;3.706;2023-04-24T06:33:15;74351.41;;;-146.65;88.22
57094;BME280;42970;50.996;3.706;2023-04-24T06:35:41;74345.34;;;-146.65;87.65
57094;BME280;42970;50.996;3.706;2023-04-24T06:38:06;74333.25;;;-146.65;87.65
57094;BME280;42970;50.996;3.706;2023-04-24T06:40:31;74345.34;;;-146.65;87.50
57094;BME280;42970;50.996;3.706;2023-04-24T06:42:57;74363.50;;;-146.65;87.79
57094;BME280;42970;50.996;3.706;2023-04-24T06:45:23;74357.44;;;-146.65;87.72
57094;BME280;42970;50.996;3.706;2023-04-24T06:47:48;74319.13;;;-146.65;87.22
57094;BME280;42970;50.996;3.706;2023-04-24T06:50:14;74331.22;;;-146.65;86.74
57094;BME280;42970;50.996;3.706;2023-04-24T06:52:40;74321.16;;;-146.65;86.38
57094;BME280;42970;50.996;3.706;2023-04-24T06:55:05;74331.22;;;-146.65;86.21
57094;BME280;42970;50.996;3.706;2023-04-24T06:57:31;74333.25;;;-146.65;85.75
57094;BME280;42970;50.996;3.706;2023-04-24T06:59:56;74337.28;;;-146.65;85.37
57094;BME280;42970;50.996;3.706;2023-04-24T07:02:21;74345.34;;;-146.65;85.00
57094;BME280;42970;50.996;3.706;2023-04-24T07:04:47;74355.44;;;-146.65;85.12
57094;BME280;42970;50.996;3.706;2023-04-24T07:07:15;74351.41;;;-146.65;85.14
57094;BME280;42970;50.996;3.706;2023-04-24T07:09:41;74371.56;;;-146.65;85.73
57094;BME280;42970;50.996;3.706;2023-04-24T07:12:10;74355.44;;;-146.65;84.78
57094;BME280;42970;50.996;3.706;2023-04-24T07:14:35;74383.66;;;-146.65;85.14
57094;BME280;42970;50.996;3.706;2023-04-24T07:17:02;74357.44;;;-146.65;85.23
57094;BME280;42970;50.996;3.706;2023-04-24T07:19:27;74363.50;;;-146.65;85.27
57094;BME280;42970;50.996;3.706;2023-04-24T07:21:53;74403.81;;;-146.65;85.52
57094;BME280;42970;50.996;3.706;2023-04-24T07:24:20;74395.75;;;-146.65;85.40
57094;BME280;42970;50.996;3.706;2023-04-24T07:26:45;74379.63;;;-146.65;84.87
57094;BME280;42970;50.996;3.706;2023-04-24T07:29:11;74389.72;;;-146.65;84.87
57094;BME280;42970;50.996;3.706;2023-04-24T07:31:37;74387.69;;;-146.65;83.91
57094;BME280;42970;50.996;3.706;2023-04-24T07:34:03;74395.75;;;-146.65;83.77
57094;BME280;42970;50.996;3.706;2023-04-24T07:36:28;74343.31;;;-146.65;83.30
57094;BME280;42970;50.996;3.706;2023-04-24T07:38:53;74371.56;;;-146.65;83.43
57094;BME280;42970;50.996;3.706;2023-04-24T07:41:19;74363.50;;;-146.65;83.35
57094;BME280;42970;50.996;3.706;2023-04-24T07:43:45;74381.63;;;-146.65;82.34
57094;BME280;42970;50.996;3.706;2023-04-24T07:46:11;74355.44;;;-146.65;81.85
57094;BME280;42970;50.996;3.706;2023-04-24T07:48:36;74385.69;;;-146.65;82.67
57094;BME280;42970;50.996;3.706;2023-04-24T07:51:01;74367.53;;;-146.65;82.52
57094;BME280;42970;50.996;3.706;2023-04-24T07:53:27;74339.28;;;-146.65;82.81
57094;BME280;42970;50.996;3.706;2023-04-24T07:55:53;74343.31;;;-146.65;81.24
57094;BME280;42970;50.996;3.706;2023-04-24T07:58:19;74298.97;;;-146.65;80.92
57094;BME280;42970;50.996;3.706;2023-04-24T08:00:44;74242.50;;;-146.65;80.98
57094;BME280;42970;50.996;3.706;2023-04-24T08:03:10;74216.28;;;-146.65;76.02
57094;BME280;42970;50.996;3.706;2023-04-24T08:05:35;74238.47;;;-146.65;77.32
57094;BME280;42970;50.996;3.706;2023-04-24T08:08:00;74218.31;;;-146.65;75.49
57094;BME280;42970;50.996;3.706;2023-04-24T08:10:25;74240.50;;;-146.65;75.97
57094;BME280;42970;50.996;3.706;2023-04-24T08:12:51;74262.66;;;-146.65;73.31
57094;BME280;42970;50.996;3.706;2023-04-24T08:15:16;74216.28;;;-146.65;75.85
57094;BME280;42970;50.996;3.706;2023-04-24T08:17:42;74186.06;;;-146.65;73.39
57094;BME280;42970;50.996;3.706;2023-04-24T08:20:08;74169.91;;;-146.65;70.57
57094;BME280;42970;50.996;3.706;2023-04-24T08:22:38;74173.94;;;-146.65;71.09
57094;BME280;42970;50.996;3.706;2023-04-24T08:25:04;74180.00;;;-146.65;69.80
57094;BME280;42970;50.996;3.706;2023-04-24T08:27:29;74173.94;;;-146.65;71.27
57094;BME280;42970;50.996;3.706;2023-04-24T08:29:54;74216.28;;;-146.65;71.83
57094;BME280;42970;50.996;3.706;2023-04-24T08:32:20;74274.78;;;-146.65;72.20
57094;BME280;42970;50.996;3.706;2023-04-24T08:34:45;74264.69;;;-146.65;71.00
57094;BME280;42970;50.996;3.706;2023-04-24T08:37:10;74238.47;;;-146.65;69.05
57094;BME280;42970;50.996;3.706;2023-04-24T08:39:36;74177.97;;;-146.65;66.49
57094;BME280;42970;50.996;3.706;2023-04-24T08:42:01;74173.94;;;-146.65;66.01
57094;BME280;42970;50.996;3.706;2023-04-24T08:44:33;74173.94;;;-146.65;67.83
57094;BME280;42970;50.996;3.706;2023-04-24T08:47:00;74206.22;;;-146.65;67.10
57094;BME280;42970;50.996;3.706;2023-04-24T08:49:27;74224.34;;;-146.65;66.76
57094;BME280;42970;50.996;3.706;2023-04-24T08:51:53;74192.09;;;-146.65;65.74
57094;BME280;42970;50.996;3.706;2023-04-24T08:54:18;74163.88;;;-146.65;66.38
57094;BME280;42970;50.996;3.706;2023-04-24T08:56:44;74177.97;;;-146.65;65.11
57094;BME280;42970;50.996;3.706;2023-04-24T08:59:10;74119.50;;;-146.65;64.75
57094;BME280;42970;50.996;3.706;2023-04-24T09:01:36;74145.72;;;-146.65;64.37
57094;BME280;42970;50.996;3.706;2023-04-24T09:04:02;74204.19;;;-146.65;63.35
57094;BME280;42970;50.996;3.706;2023-04-24T09:06:28;74192.09;;;-146.65;62.95
57094;BME280;42970;50.996;3.706;2023-04-24T09:08:55;74200.16;;;-146.65;63.25
57094;BME280;42970;50.996;3.706;2023-04-24T09:11:21;74206.22;;;-146.65;62.35
57094;BME280;42970;50.996;3.706;2023-04-24T09:13:49;74188.06;;;-146.65;64.45
57094;BME280;42970;50.996;3.706;2023-04-24T09:16:14;74212.25;;;-146.65;64.02
57094;BME280;42970;50.996;3.706;2023-04-24T09:18:40;74232.44;;;-146.65;61.09
57094;BME280;42970;50.996;3.706;2023-04-24T09:21:09;74222.34;;;-146.65;60.73
57094;BME280;42970;50.996;3.706;2023-04-24T09:23:34;74234.44;;;-146.65;61.04
57094;BME280;42970;50.996;3.706;2023-04-24T09:26:01;74212.25;;;-146.65;61.81
57094;BME280;42970;50.996;3.706;2023-04-24T09:28:29;74192.09;;;-146.65;60.62
57094;BME280;42970;50.996;3.706;2023-04-24T09:33:35;74202.19;;;-146.65;59.97
57094;BME280;42970;50.996;3.706;2023-04-24T09:36:01;74230.41;;;-146.65;61.55
57094;BME280;42970;50.996;3.706;2023-04-24T09:38:36;74242.50;;;-146.65;62.19
57094;BME280;42970;50.996;3.706;2023-04-24T09:41:02;74240.50;;;-146.65;61.39
57094;BME280;42970;50.996;3.706;2023-04-24T09:43:30;74222.34;;;-146.65;58.88
57094;BME280;42970;50.996;3.706;2023-04-24T09:45:56;74214.28;;;-146.65;57.95
57094;BME280;42970;50.996;3.706;2023-04-24T09:48:34;74204.19;;;-146.65;58.15
57094;BME280;42970;50.996;3.706;2023-04-24T09:51:01;74125.56;;;-146.65;59.18
57094;BME280;42970;50.996;3.706;2023-04-24T09:53:27;74190.09;;;-146.65;56.27
57094;BME280;42970;50.996;3.706;2023-04-24T09:55:52;74248.56;;;-146.65;58.18
57094;BME280;42970;50.996;3.706;2023-04-24T09:58:18;74222.34;;;-146.65;60.62
57094;BME280;42970;50.996;3.706;2023-04-24T10:00:49;74202.19;;;-146.65;57.77
57094;BME280;42970;50.996;3.706;2023-04-24T10:03:14;74169.91;;;-146.65;58.95
57094;BME280;42970;50.996;3.706;2023-04-24T10:05:39;74167.91;;;-146.65;59.06
57094;BME280;42970;50.996;3.706;2023-04-24T10:08:06;74177.97;;;-146.65;59.06
57094;BME280;42970;50.996;3.706;2023-04-24T10:10:33;74157.81;;;-146.65;57.98
57094;BME280;42970;50.996;3.706;2023-04-24T10:12:59;74153.78;;;-146.65;59.67
57094;BME280;42970;50.996;3.706;2023-04-24T10:15:25;74075.16;;;-146.65;58.13
57094;BME280;42970;50.996;3.706;2023-04-24T10:17:51;74169.91;;;-146.65;59.16
57094;BME280;42970;50.996;3.706;2023-04-24T10:22:46;74224.34;;;-146.65;60.23
57094;BME280;42970;50.996;3.706;2023-04-24T10:25:15;74161.84;;;-146.65;58.95
57094;BME280;42970;50.996;3.706;2023-04-24T10:27:41;74167.91;;;-146.65;58.56
57094;BME280;42970;50.996;3.706;2023-04-24T10:30:06;74165.88;;;-146.65;59.24
57094;BME280;42970;50.996;3.706;2023-04-24T10:32:32;74157.81;;;-146.65;59.87
57094;BME280;42970;50.996;3.706;2023-04-24T10:34:58;74151.78;;;-146.65;59.30
57094;BME280;42970;50.996;3.706;2023-04-24T10:37:23;74208.22;;;-146.65;59.00
57094;BME280;42970;50.996;3.706;2023-04-24T10:39:49;74091.28;;;-146.65;55.34
57094;BME280;42970;50.996;3.706;2023-04-24T10:42:16;73940.06;;;-146.65;54.25
57094;BME280;42970;50.996;3.706;2023-04-24T10:44:42;74004.59;;;-146.65;55.13
57094;BME280;42970;50.996;3.706;2023-04-24T10:47:12;73988.44;;;-146.65;53.38
57094;BME280;42970;50.996;3.706;2023-04-24T10:49:37;74085.22;;;-146.65;55.03
57094;BME280;42970;50.996;3.706;2023-04-24T10:52:03;74113.47;;;-146.65;52.81
57094;BME280;42970;50.996;3.706;2023-04-24T10:59:48;74131.59;;;-146.65;55.18
57094;BME280;42970;50.996;3.706;2023-04-24T11:02:14;74032.81;;;-146.65;53.35
57094;BME280;42970;50.996;3.706;2023-04-24T11:04:40;73994.50;;;-146.65;53.29
57094;BME280;42970;50.996;3.706;2023-04-24T11:07:05;73996.50;;;-146.65;53.77
57094;BME280;42970;50.996;3.706;2023-04-24T11:09:31;74034.81;;;-146.65;52.70
57094;BME280;42970;50.996;3.706;2023-04-24T11:12:31;74020.72;;;-146.65;54.55
57094;BME280;42970;50.996;3.706;2023-04-24T11:20:04;74153.78;;;-146.65;56.46
57094;BME280;42970;50.996;3.706;2023-04-24T11:22:35;73899.75;;;-146.65;52.13
57094;BME280;42970;50.996;3.706;2023-04-24T11:25:01;73867.47;;;-146.65;49.97
57094;BME280;42970;50.996;3.706;2023-04-24T11:27:30;73853.38;;;-146.65;47.73
57094;BME280;42970;50.996;3.706;2023-04-24T11:34:47;73863.44;;;-146.65;50.70
57094;BME280;42970;50.996;3.706;2023-04-24T11:37:13;73867.47;;;-146.65;49.53
57094;BME280;42970;50.996;3.706;2023-04-24T11:39:39;73968.28;;;-146.65;52.04
57094;BME280;42970;50.996;3.706;2023-04-24T11:42:05;73929.97;;;-146.65;50.48
57094;BME280;42970;50.996;3.706;2023-04-24T11:44:33;73859.41;;;-146.65;50.65
57094;BME280;42970;50.996;3.706;2023-04-24T11:46:58;73883.59;;;-146.65;49.33
57094;BME280;42970;50.996;3.706;2023-04-24T11:49:24;73938.03;;;-146.65;50.17
57094;BME280;42970;50.996;3.706;2023-04-24T11:51:49;74030.78;;;-146.65;49.21
57094;BME280;42970;50.996;3.706;2023-04-24T11:54:14;74042.88;;;-146.65;52.83
57094;BME280;42970;50.996;3.706;2023-04-24T11:56:44;74115.47;;;-146.65;54.44
57094;BME280;42970;50.996;3.706;2023-04-24T11:59:09;74061.03;;;-146.65;54.29
57094;BME280;42970;50.996;3.706;2023-04-24T12:01:45;74036.84;;;-146.65;51.12
57094;BME280;42970;50.996;3.706;2023-04-24T12:04:10;74055.00;;;-146.65;50.00
57094;BME280;42970;50.996;3.706;2023-04-24T12:06:38;74083.22;;;-146.65;50.65
57094;BME280;42970;50.996;3.706;2023-04-24T12:09:04;74000.53;;;-146.65;49.90
57094;BME280;42970;50.996;3.706;2023-04-24T12:11:29;73895.69;;;-146.65;47.72
57094;BME280;42970;50.996;3.706;2023-04-24T12:13:55;73972.31;;;-146.65;49.73
57094;BME280;42970;50.996;3.706;2023-04-24T12:16:20;74055.00;;;-146.65;49.76
57094;BME280;42970;50.996;3.706;2023-04-24T12:18:45;74000.53;;;-146.65;48.76
57094;BME280;42970;50.996;3.706;2023-04-24T12:21:29;73871.50;;;-146.65;46.25
57094;BME280;42970;50.996;3.706;2023-04-24T12:23:56;73794.91;;;-146.65;44.54
57094;BME280;42970;50.996;3.706;2023-04-24T12:26:22;73843.28;;;-146.65;45.67
57094;BME280;42970;50.996;3.706;2023-04-24T12:28:48;73825.13;;;-146.65;46.54
57094;BME280;42970;50.996;3.706;2023-04-24T12:31:15;73786.84;;;-146.65;44.68
57094;BME280;42970;50.996;3.706;2023-04-24T12:33:41;73819.09;;;-146.65;44.06
57094;BME280;42970;50.996;3.706;2023-04-24T12:36:09;73861.44;;;-146.65;44.41
57094;BME280;42970;50.996;3.706;2023-04-24T12:38:35;73893.69;;;-146.65;45.04
57094;BME280;42970;50.996;3.706;2023-04-24T12:41:08;73807.00;;;-146.65;45.19
57094;BME280;42970;50.996;3.706;2023-04-24T12:43:34;73778.75;;;-146.65;43.46
57094;BME280;42970;50.996;3.706;2023-04-24T12:46:00;73742.47;;;-146.65;43.14
57094;BME280;42970;50.996;3.706;2023-04-24T12:48:29;73869.50;;;-146.65;43.52
57094;BME280;42970;50.996;3.706;2023-04-24T12:50:56;73934.00;;;-146.65;47.46
57094;BME280;42970;50.996;3.706;2023-04-24T12:53:22;74052.97;;;-146.65;45.82
57094;BME280;42970;50.996;3.706;2023-04-24T12:55:47;74083.22;;;-146.65;46.62